Pagina principală
METAR-TAF:

METAR-TAF

Aeroporturi :

Dillon Airport

Dillon, Montana, Statele Unite ale Americii

Latitudine: 45-15-27N, longitudine: 112-33-16W, elevație: 1597 m

Observații meteo curente

Raportul a fost făcut în urmă cu 1 oră și 20 de minute, la 21:53 UTC
Vânt 6 kt de la Nord
Temperatură 33°C
Umiditate 26%
Presiune 1021 hPa
Vizibilitate: 16.1 km
Cer senin

METAR: KDLN 232153Z AUTO 35006KT 10SM CLR 33/11 A3014 RMK AO2 SLP144 T03280111

Ora: 17:13 (23:13 UTC)


TAF: lipsă

Observații și prognoze meteo pentru peste 4.000 de aeroporturi (rapoarte METAR și TAF).

Stațiile disponibile sunt reprezentate pe hartă prin puncte galbene și roșii.

Țineți indicatorul mouse-ului pe punctul dorit pentru a vedea denumirea stației.

Apoi, faceți clic pentru a vedea observațiile și prognozele meteorologice.

Pentru a schimba harta: Pentru mărire, faceți clic pe butoanele verzi cu cruce neagră; pentru micșorare, pe butonul verde cu o liniuță; pentru hărți învecinate, pe săgețile verzi.


METAR-TAF: